Terminal Aerodrome Forecast
Issued by NWS

Home | Current Version | Previous Version | Text Only | Print | Product List | Glossary On
Versions: 1 2 3 4 5 6 7 8 9 10 11 12 13 14 15 16
000
FTUS45 KGJT 202329
TAFCNY
TAF
KCNY 202329Z 2100/2124 09025G35KT P6SM VCTS SCT070CB BKN140
      TEMPO 2100/2102 VRB10G20KT -TSRA BKN070CB
     FM210200 17010KT P6SM FEW110 SCT200
     FM210400 14009KT P6SM FEW100 SCT250
     FM210800 07005KT P6SM FEW250
     FM212000 18011KT P6SM FEW150 SCT250=

USA.gov is the U.S. government's official web portal to all federal, state and local government web resources and services.